createdAt,value
2022-08-25T00:02:36.659Z,8.30
2022-08-25T00:07:41.813Z,8.73
2022-08-25T00:12:45.213Z,8.98
2022-08-25T00:17:49.195Z,10.55
2022-08-25T00:22:54.034Z,10.15
2022-08-25T00:27:59.174Z,10.13
2022-08-25T00:33:02.778Z,10.30
2022-08-25T00:38:07.596Z,9.80
2022-08-25T00:43:11.381Z,9.43
2022-08-25T00:48:14.729Z,10.15
2022-08-25T00:53:19.608Z,9.70
2022-08-25T00:58:26.148Z,10.25
2022-08-25T01:03:35.934Z,11.27
2022-08-25T01:08:40.870Z,10.40
2022-08-25T01:13:50.681Z,10.70
2022-08-25T01:18:56.493Z,10.33
2022-08-25T01:24:01.845Z,10.02
2022-08-25T01:29:25.597Z,10.32
2022-08-25T01:34:31.646Z,9.85
2022-08-25T01:39:37.430Z,10.57
2022-08-25T01:44:43.771Z,9.65
2022-08-25T01:49:47.309Z,9.77
2022-08-25T01:54:52.273Z,10.38
2022-08-25T01:59:55.618Z,10.07
2022-08-25T02:04:58.951Z,10.45
2022-08-25T02:15:10.502Z,10.68
2022-08-25T02:20:13.966Z,10.40
2022-08-25T02:25:18.854Z,10.95
2022-08-25T02:30:22.606Z,10.75
2022-08-25T02:35:26.199Z,10.60
2022-08-25T02:40:30.981Z,10.95
2022-08-25T02:45:34.365Z,11.60
2022-08-25T02:50:37.633Z,10.60
2022-08-25T02:55:42.317Z,11.05
2022-08-25T03:00:46.101Z,10.90
2022-08-25T03:05:50.145Z,11.13
2022-08-25T03:10:54.829Z,11.27
2022-08-25T03:15:58.133Z,11.18
2022-08-25T03:21:01.535Z,11.40
2022-08-25T03:26:24.205Z,11.02
2022-08-25T03:31:28.417Z,12.05
2022-08-25T03:36:32.096Z,12.32
2022-08-25T03:41:37.161Z,12.90
2022-08-25T03:46:43.806Z,13.70
2022-08-25T03:51:49.710Z,13.00
2022-08-25T03:56:54.941Z,12.30
2022-08-25T04:01:58.327Z,13.63
2022-08-25T04:07:01.658Z,12.02
2022-08-25T04:12:06.997Z,13.80
2022-08-25T04:17:10.328Z,14.18
2022-08-25T04:22:13.658Z,13.52
2022-08-25T04:27:18.365Z,14.30
2022-08-25T04:32:21.805Z,13.13
2022-08-25T04:37:25.159Z,13.68
2022-08-25T04:42:29.962Z,13.10
2022-08-25T04:47:37.408Z,12.55
2022-08-25T04:52:40.725Z,13.77
2022-08-25T04:57:45.396Z,12.48
2022-08-25T05:02:48.794Z,13.07
2022-08-25T05:07:52.099Z,12.75
2022-08-25T05:12:58.148Z,12.55
2022-08-25T05:18:01.517Z,11.77
2022-08-25T05:23:05.361Z,11.35
2022-08-25T05:28:14.859Z,9.52
2022-08-25T05:33:18.585Z,8.67
2022-08-25T05:38:22.270Z,9.20
2022-08-25T05:43:27.144Z,8.50
2022-08-25T05:48:30.452Z,7.72
2022-08-25T05:53:35.146Z,8.40
2022-08-25T05:58:40.095Z,8.70
2022-08-25T06:03:43.521Z,7.90
2022-08-25T06:08:46.879Z,8.17
2022-08-25T06:13:51.620Z,9.05
2022-08-25T06:18:55.511Z,7.53
2022-08-25T06:23:59.153Z,8.15
2022-08-25T06:29:05.084Z,7.45
2022-08-25T06:34:08.438Z,8.45
2022-08-25T06:39:12.383Z,7.90
2022-08-25T06:44:17.310Z,7.87
2022-08-25T06:49:21.664Z,7.60
2022-08-25T06:54:24.984Z,6.93
2022-08-25T06:59:32.473Z,7.47
2022-08-25T07:04:36.972Z,7.32
2022-08-25T07:09:40.457Z,7.30
2022-08-25T07:14:58.056Z,7.25
2022-08-25T07:20:08.057Z,6.30
2022-08-25T07:25:13.825Z,6.70
2022-08-25T07:30:20.421Z,6.80
2022-08-25T07:35:26.285Z,5.87
2022-08-25T07:40:32.095Z,6.17
2022-08-25T07:45:46.872Z,6.47
2022-08-25T07:50:53.423Z,5.82
2022-08-25T07:55:56.772Z,6.07
2022-08-25T08:01:02.683Z,6.18
2022-08-25T08:06:10.323Z,6.45
2022-08-25T08:11:17.306Z,7.20
2022-08-25T08:16:24.178Z,5.97
2022-08-25T08:21:30.313Z,6.93
2022-08-25T08:26:55.219Z,9.10
2022-08-25T08:31:58.412Z,10.60
2022-08-25T08:37:03.286Z,10.27
2022-08-25T08:42:22.235Z,11.90
2022-08-25T08:47:33.968Z,11.80
2022-08-25T08:52:46.122Z,13.73
2022-08-25T08:57:55.760Z,12.57
2022-08-25T09:03:06.473Z,19.83
2022-08-25T09:08:12.954Z,15.43
2022-08-25T09:13:26.392Z,12.88
2022-08-25T09:18:41.191Z,16.30
2022-08-25T09:24:14.097Z,18.20
2022-08-25T09:29:23.670Z,20.40
2022-08-25T09:34:35.130Z,17.38
2022-08-25T09:39:39.133Z,11.60
2022-08-25T09:44:44.525Z,12.57
2022-08-25T09:49:51.287Z,13.35
2022-08-25T09:54:56.043Z,13.37
2022-08-25T10:00:10.515Z,12.00
2022-08-25T10:05:24.458Z,11.02
2022-08-25T10:10:32.232Z,13.18
2022-08-25T10:15:38.846Z,14.93
2022-08-25T10:20:44.584Z,12.90
2022-08-25T10:25:57.616Z,12.73
2022-08-25T10:31:10.886Z,11.80
2022-08-25T10:36:21.425Z,10.20
2022-08-25T10:41:46.899Z,11.60
2022-08-25T10:46:58.330Z,11.63
2022-08-25T10:52:08.822Z,14.65
2022-08-25T10:57:21.398Z,11.07
2022-08-25T11:03:04.301Z,13.35
2022-08-25T11:08:15.573Z,10.87
2022-08-25T11:13:26.292Z,12.68
2022-08-25T11:18:31.967Z,12.20
2022-08-25T11:23:40.881Z,15.73
2022-08-25T11:28:55.403Z,16.67
2022-08-25T11:34:00.826Z,16.93
2022-08-25T11:39:17.314Z,16.88
2022-08-25T11:44:39.226Z,14.88
2022-08-25T11:50:00.601Z,17.88
2022-08-25T11:55:12.068Z,16.42
2022-08-25T12:00:36.663Z,16.87
2022-08-25T12:06:13.853Z,14.77
2022-08-25T12:11:49.362Z,15.32
2022-08-25T12:17:12.166Z,17.75
2022-08-25T12:22:51.674Z,19.85
2022-08-25T12:28:09.214Z,19.50
2022-08-25T12:33:21.192Z,13.55
2022-08-25T12:38:33.036Z,17.63
2022-08-25T12:43:43.381Z,15.68
2022-08-25T12:48:58.092Z,15.02
2022-08-25T12:54:18.930Z,13.33
2022-08-25T12:59:32.692Z,14.45
2022-08-25T13:05:11.709Z,14.52
2022-08-25T13:10:35.138Z,19.52
2022-08-25T13:15:45.221Z,15.48
2022-08-25T13:20:54.002Z,17.57
2022-08-25T13:25:58.641Z,17.75
2022-08-25T13:31:09.013Z,17.38
2022-08-25T13:36:36.202Z,14.10
2022-08-25T13:41:46.277Z,12.23
2022-08-25T13:47:07.248Z,13.20
2022-08-25T13:52:21.505Z,13.65
2022-08-25T13:57:33.859Z,15.27
2022-08-25T14:02:45.195Z,12.13
2022-08-25T14:08:03.791Z,14.03
2022-08-25T14:13:33.280Z,14.00
2022-08-25T14:18:39.988Z,10.88
2022-08-25T14:23:43.799Z,16.85
2022-08-25T14:28:47.271Z,14.30
2022-08-25T14:33:55.518Z,18.35
2022-08-25T14:38:59.406Z,27.70
2022-08-25T14:44:05.573Z,16.17
2022-08-25T14:49:13.865Z,12.88
2022-08-25T14:54:18.802Z,13.73
2022-08-25T14:59:22.501Z,13.00
2022-08-25T15:04:30.082Z,13.98
2022-08-25T15:09:33.863Z,15.68
2022-08-25T15:14:37.226Z,16.08
2022-08-25T15:19:45.945Z,18.03
2022-08-25T15:24:49.360Z,16.20
2022-08-25T15:29:52.863Z,16.88
2022-08-25T15:34:59.479Z,16.88
2022-08-25T15:40:03.721Z,17.63
2022-08-25T15:45:12.084Z,15.43
2022-08-25T15:50:24.158Z,16.85
2022-08-25T15:55:29.462Z,14.18
2022-08-25T16:00:32.941Z,16.08
2022-08-25T16:05:38.263Z,14.83
2022-08-25T16:10:44.393Z,15.98
2022-08-25T16:15:54.256Z,14.90
2022-08-25T16:20:59.298Z,15.77
2022-08-25T16:26:06.714Z,17.17
2022-08-25T16:31:12.337Z,14.70
2022-08-25T16:36:19.277Z,20.30
2022-08-25T16:41:27.233Z,16.63
2022-08-25T16:46:31.265Z,14.45
2022-08-25T16:51:38.666Z,18.20
2022-08-25T16:56:42.742Z,13.97
2022-08-25T17:01:46.655Z,14.57
2022-08-25T17:06:51.670Z,15.75
2022-08-25T17:11:57.308Z,17.45
2022-08-25T17:17:00.707Z,15.83
2022-08-25T17:22:08.215Z,13.23
2022-08-25T17:27:13.199Z,14.52
2022-08-25T17:32:16.967Z,15.20
2022-08-25T17:37:22.238Z,15.95
2022-08-25T17:42:25.642Z,14.63
2022-08-25T17:47:33.793Z,12.38
2022-08-25T17:52:39.460Z,14.40
2022-08-25T17:57:42.925Z,14.82
2022-08-25T18:02:47.071Z,16.38
2022-08-25T18:07:51.926Z,17.63
2022-08-25T18:12:57.358Z,14.30
2022-08-25T18:18:00.792Z,18.07
2022-08-25T18:23:09.912Z,19.25
2022-08-25T18:28:13.662Z,15.55
2022-08-25T18:33:19.054Z,17.37
2022-08-25T18:38:42.879Z,18.77
2022-08-25T18:43:46.756Z,21.35
2022-08-25T18:48:53.017Z,17.67
2022-08-25T18:54:00.961Z,17.23
2022-08-25T18:59:04.896Z,17.13
2022-08-25T19:04:10.058Z,20.77
2022-08-25T19:09:15.871Z,18.50
2022-08-25T19:14:19.387Z,18.33
2022-08-25T19:19:22.783Z,19.83
2022-08-25T19:24:28.334Z,16.17
2022-08-25T19:29:32.594Z,17.30
2022-08-25T19:34:42.055Z,19.07
2022-08-25T19:39:53.133Z,18.37
2022-08-25T19:44:59.638Z,20.08
2022-08-25T19:50:03.181Z,18.53
2022-08-25T19:55:09.011Z,17.47
2022-08-25T20:00:17.592Z,18.47
2022-08-25T20:05:23.553Z,18.90
2022-08-25T20:10:31.739Z,19.30
2022-08-25T20:15:38.735Z,16.03
2022-08-25T20:20:42.869Z,19.23
2022-08-25T20:25:47.941Z,18.47
2022-08-25T20:30:54.058Z,14.88
2022-08-25T20:35:58.234Z,17.73
2022-08-25T20:41:03.152Z,20.13
2022-08-25T20:46:07.928Z,18.25
2022-08-25T20:51:13.070Z,16.93
2022-08-25T20:56:20.365Z,17.88
2022-08-25T21:01:37.531Z,23.40
2022-08-25T21:06:41.656Z,21.60
2022-08-25T21:11:47.193Z,20.15
2022-08-25T21:16:51.085Z,15.57
2022-08-25T21:21:59.828Z,23.23
2022-08-25T21:27:06.222Z,23.97
2022-08-25T21:32:09.976Z,20.83
2022-08-25T21:37:13.432Z,17.40
2022-08-25T21:42:18.502Z,24.67
2022-08-25T21:47:23.261Z,21.15
2022-08-25T21:52:26.899Z,23.10
2022-08-25T21:57:31.768Z,22.08
2022-08-25T22:02:35.246Z,17.83
2022-08-25T22:07:41.719Z,17.15
2022-08-25T22:12:47.446Z,18.47
2022-08-25T22:17:50.840Z,19.47
2022-08-25T22:22:54.438Z,19.50
2022-08-25T22:27:59.305Z,26.53
2022-08-25T22:33:03.364Z,27.95
2022-08-25T22:38:12.447Z,20.65
2022-08-25T22:43:17.558Z,22.85
2022-08-25T22:48:20.891Z,18.67
2022-08-25T22:53:24.481Z,17.97
2022-08-25T22:58:29.829Z,17.92
2022-08-25T23:03:33.215Z,22.05
2022-08-25T23:08:39.142Z,18.55
2022-08-25T23:13:46.583Z,27.23
2022-08-25T23:18:49.978Z,19.65
2022-08-25T23:23:53.443Z,17.48
2022-08-25T23:28:58.635Z,19.20
2022-08-25T23:34:02.811Z,21.77
2022-08-25T23:39:07.785Z,18.97
2022-08-25T23:44:17.480Z,17.98
2022-08-25T23:49:23.744Z,20.15
2022-08-25T23:54:31.018Z,20.83
2022-08-25T23:59:36.430Z,18.15
